sensor_id;sensor_type;location;lat;lon;timestamp;P1;durP1;ratioP1;P2;durP2;ratioP2
46755;SDS011;32506;52.826;-1.192;2023-01-28T00:02:17;4.45;;;3.10;;
46755;SDS011;32506;52.826;-1.192;2023-01-28T00:04:43;4.10;;;2.30;;
46755;SDS011;32506;52.826;-1.192;2023-01-28T00:07:08;5.07;;;2.58;;
46755;SDS011;32506;52.826;-1.192;2023-01-28T00:09:34;5.00;;;2.40;;
46755;SDS011;32506;52.826;-1.192;2023-01-28T00:11:59;4.63;;;2.70;;
46755;SDS011;32506;52.826;-1.192;2023-01-28T00:14:25;4.68;;;2.25;;
46755;SDS011;32506;52.826;-1.192;2023-01-28T00:16:50;4.50;;;2.78;;
46755;SDS011;32506;52.826;-1.192;2023-01-28T00:19:16;4.28;;;2.83;;
46755;SDS011;32506;52.826;-1.192;2023-01-28T00:21:41;3.88;;;2.50;;
46755;SDS011;32506;52.826;-1.192;2023-01-28T00:24:07;5.25;;;2.97;;
46755;SDS011;32506;52.826;-1.192;2023-01-28T00:26:33;4.32;;;2.50;;
46755;SDS011;32506;52.826;-1.192;2023-01-28T00:28:59;5.20;;;2.67;;
46755;SDS011;32506;52.826;-1.192;2023-01-28T00:31:25;4.38;;;2.47;;
46755;SDS011;32506;52.826;-1.192;2023-01-28T00:33:52;4.20;;;2.33;;
46755;SDS011;32506;52.826;-1.192;2023-01-28T00:36:20;3.50;;;2.22;;
46755;SDS011;32506;52.826;-1.192;2023-01-28T00:38:48;5.07;;;2.97;;
46755;SDS011;32506;52.826;-1.192;2023-01-28T00:41:35;4.47;;;3.22;;
46755;SDS011;32506;52.826;-1.192;2023-01-28T00:44:01;4.03;;;2.25;;
46755;SDS011;32506;52.826;-1.192;2023-01-28T00:46:27;3.33;;;2.63;;
46755;SDS011;32506;52.826;-1.192;2023-01-28T00:48:52;5.40;;;2.72;;
46755;SDS011;32506;52.826;-1.192;2023-01-28T00:51:18;4.60;;;2.92;;
46755;SDS011;32506;52.826;-1.192;2023-01-28T00:53:47;5.45;;;3.05;;
46755;SDS011;32506;52.826;-1.192;2023-01-28T00:56:13;6.22;;;2.80;;
46755;SDS011;32506;52.826;-1.192;2023-01-28T00:58:40;6.05;;;3.10;;
46755;SDS011;32506;52.826;-1.192;2023-01-28T01:01:10;4.75;;;3.10;;
46755;SDS011;32506;52.826;-1.192;2023-01-28T01:03:39;5.47;;;3.30;;
46755;SDS011;32506;52.826;-1.192;2023-01-28T01:06:05;4.82;;;2.88;;
46755;SDS011;32506;52.826;-1.192;2023-01-28T01:08:31;6.40;;;3.53;;
46755;SDS011;32506;52.826;-1.192;2023-01-28T01:11:02;5.65;;;2.58;;
46755;SDS011;32506;52.826;-1.192;2023-01-28T01:13:29;4.85;;;3.03;;
46755;SDS011;32506;52.826;-1.192;2023-01-28T01:16:02;5.97;;;3.20;;
46755;SDS011;32506;52.826;-1.192;2023-01-28T01:18:30;6.25;;;3.00;;
46755;SDS011;32506;52.826;-1.192;2023-01-28T01:20:55;6.03;;;3.47;;
46755;SDS011;32506;52.826;-1.192;2023-01-28T01:23:26;5.68;;;2.88;;
46755;SDS011;32506;52.826;-1.192;2023-01-28T01:25:52;6.57;;;3.20;;
46755;SDS011;32506;52.826;-1.192;2023-01-28T01:28:18;5.10;;;3.22;;
46755;SDS011;32506;52.826;-1.192;2023-01-28T01:30:45;4.80;;;3.05;;
46755;SDS011;32506;52.826;-1.192;2023-01-28T01:33:11;5.35;;;3.20;;
46755;SDS011;32506;52.826;-1.192;2023-01-28T01:35:36;5.00;;;2.97;;
46755;SDS011;32506;52.826;-1.192;2023-01-28T01:38:02;4.63;;;3.13;;
46755;SDS011;32506;52.826;-1.192;2023-01-28T01:40:27;5.22;;;3.25;;
46755;SDS011;32506;52.826;-1.192;2023-01-28T01:42:53;5.65;;;3.65;;
46755;SDS011;32506;52.826;-1.192;2023-01-28T01:45:19;6.82;;;4.00;;
46755;SDS011;32506;52.826;-1.192;2023-01-28T01:50:19;5.55;;;3.40;;
46755;SDS011;32506;52.826;-1.192;2023-01-28T01:52:56;6.53;;;3.70;;
46755;SDS011;32506;52.826;-1.192;2023-01-28T01:55:27;5.10;;;3.07;;
46755;SDS011;32506;52.826;-1.192;2023-01-28T01:57:57;6.32;;;3.40;;
46755;SDS011;32506;52.826;-1.192;2023-01-28T02:00:29;5.35;;;3.47;;
46755;SDS011;32506;52.826;-1.192;2023-01-28T02:02:55;6.97;;;3.58;;
46755;SDS011;32506;52.826;-1.192;2023-01-28T02:05:22;5.60;;;3.50;;
46755;SDS011;32506;52.826;-1.192;2023-01-28T02:07:49;6.20;;;3.53;;
46755;SDS011;32506;52.826;-1.192;2023-01-28T02:10:19;6.78;;;4.05;;
46755;SDS011;32506;52.826;-1.192;2023-01-28T02:12:50;6.60;;;3.97;;
46755;SDS011;32506;52.826;-1.192;2023-01-28T02:15:20;5.38;;;3.15;;
46755;SDS011;32506;52.826;-1.192;2023-01-28T02:17:49;7.28;;;4.15;;
46755;SDS011;32506;52.826;-1.192;2023-01-28T02:20:20;6.45;;;3.60;;
46755;SDS011;32506;52.826;-1.192;2023-01-28T02:28:33;5.88;;;3.50;;
46755;SDS011;32506;52.826;-1.192;2023-01-28T02:34:22;6.03;;;3.95;;
46755;SDS011;32506;52.826;-1.192;2023-01-28T02:37:00;5.65;;;3.90;;
46755;SDS011;32506;52.826;-1.192;2023-01-28T02:39:35;4.97;;;3.22;;
46755;SDS011;32506;52.826;-1.192;2023-01-28T02:42:26;5.28;;;3.17;;
46755;SDS011;32506;52.826;-1.192;2023-01-28T02:44:54;6.05;;;3.25;;
46755;SDS011;32506;52.826;-1.192;2023-01-28T02:47:20;6.30;;;3.72;;
46755;SDS011;32506;52.826;-1.192;2023-01-28T02:50:06;5.65;;;3.42;;
46755;SDS011;32506;52.826;-1.192;2023-01-28T02:55:34;8.10;;;3.58;;
46755;SDS011;32506;52.826;-1.192;2023-01-28T03:03:14;5.50;;;3.65;;
46755;SDS011;32506;52.826;-1.192;2023-01-28T03:05:48;6.15;;;3.53;;
46755;SDS011;32506;52.826;-1.192;2023-01-28T03:08:36;5.05;;;3.38;;
46755;SDS011;32506;52.826;-1.192;2023-01-28T03:11:27;5.82;;;3.63;;
46755;SDS011;32506;52.826;-1.192;2023-01-28T03:14:13;5.28;;;3.38;;
46755;SDS011;32506;52.826;-1.192;2023-01-28T03:17:00;5.68;;;3.40;;
46755;SDS011;32506;52.826;-1.192;2023-01-28T03:19:45;5.78;;;3.72;;
46755;SDS011;32506;52.826;-1.192;2023-01-28T03:22:31;6.43;;;3.72;;
46755;SDS011;32506;52.826;-1.192;2023-01-28T03:25:19;5.05;;;3.38;;
46755;SDS011;32506;52.826;-1.192;2023-01-28T03:28:09;5.68;;;3.67;;
46755;SDS011;32506;52.826;-1.192;2023-01-28T03:31:02;4.57;;;3.35;;
46755;SDS011;32506;52.826;-1.192;2023-01-28T03:33:50;6.88;;;3.70;;
46755;SDS011;32506;52.826;-1.192;2023-01-28T03:36:35;6.50;;;3.53;;
46755;SDS011;32506;52.826;-1.192;2023-01-28T03:39:14;5.03;;;3.08;;
46755;SDS011;32506;52.826;-1.192;2023-01-28T03:41:42;5.30;;;3.20;;
46755;SDS011;32506;52.826;-1.192;2023-01-28T03:44:19;4.93;;;3.13;;
46755;SDS011;32506;52.826;-1.192;2023-01-28T03:47:03;6.15;;;3.60;;
46755;SDS011;32506;52.826;-1.192;2023-01-28T03:49:31;6.55;;;3.70;;
46755;SDS011;32506;52.826;-1.192;2023-01-28T03:51:56;6.90;;;3.75;;
46755;SDS011;32506;52.826;-1.192;2023-01-28T03:54:22;5.72;;;3.72;;
46755;SDS011;32506;52.826;-1.192;2023-01-28T03:56:47;4.78;;;3.53;;
46755;SDS011;32506;52.826;-1.192;2023-01-28T03:59:13;5.85;;;3.95;;
46755;SDS011;32506;52.826;-1.192;2023-01-28T04:01:39;6.13;;;3.75;;
46755;SDS011;32506;52.826;-1.192;2023-01-28T04:04:04;5.70;;;3.97;;
46755;SDS011;32506;52.826;-1.192;2023-01-28T04:06:30;6.30;;;3.78;;
46755;SDS011;32506;52.826;-1.192;2023-01-28T04:08:56;5.55;;;3.90;;
46755;SDS011;32506;52.826;-1.192;2023-01-28T04:11:23;7.00;;;3.83;;
46755;SDS011;32506;52.826;-1.192;2023-01-28T04:13:50;7.45;;;4.18;;
46755;SDS011;32506;52.826;-1.192;2023-01-28T04:16:16;6.05;;;3.40;;
46755;SDS011;32506;52.826;-1.192;2023-01-28T04:18:43;7.78;;;4.60;;
46755;SDS011;32506;52.826;-1.192;2023-01-28T04:21:09;7.10;;;4.70;;
46755;SDS011;32506;52.826;-1.192;2023-01-28T04:23:35;6.90;;;4.75;;
46755;SDS011;32506;52.826;-1.192;2023-01-28T04:26:00;5.97;;;4.22;;
46755;SDS011;32506;52.826;-1.192;2023-01-28T04:28:28;7.13;;;4.15;;
46755;SDS011;32506;52.826;-1.192;2023-01-28T04:30:54;9.15;;;5.25;;
46755;SDS011;32506;52.826;-1.192;2023-01-28T04:33:20;8.18;;;5.00;;
46755;SDS011;32506;52.826;-1.192;2023-01-28T04:35:46;6.78;;;4.65;;
46755;SDS011;32506;52.826;-1.192;2023-01-28T04:38:11;7.57;;;4.63;;
46755;SDS011;32506;52.826;-1.192;2023-01-28T04:40:37;8.48;;;5.15;;
46755;SDS011;32506;52.826;-1.192;2023-01-28T04:43:02;7.40;;;4.95;;
46755;SDS011;32506;52.826;-1.192;2023-01-28T04:45:28;9.25;;;5.00;;
46755;SDS011;32506;52.826;-1.192;2023-01-28T04:47:55;7.90;;;5.50;;
46755;SDS011;32506;52.826;-1.192;2023-01-28T04:50:20;9.65;;;5.13;;
46755;SDS011;32506;52.826;-1.192;2023-01-28T04:52:46;7.93;;;5.07;;
46755;SDS011;32506;52.826;-1.192;2023-01-28T04:55:11;7.72;;;5.07;;
46755;SDS011;32506;52.826;-1.192;2023-01-28T04:57:39;7.60;;;4.90;;
46755;SDS011;32506;52.826;-1.192;2023-01-28T05:00:04;8.32;;;4.55;;
46755;SDS011;32506;52.826;-1.192;2023-01-28T05:02:30;7.38;;;4.95;;
46755;SDS011;32506;52.826;-1.192;2023-01-28T05:04:56;7.45;;;5.22;;
46755;SDS011;32506;52.826;-1.192;2023-01-28T05:07:21;7.63;;;5.13;;
46755;SDS011;32506;52.826;-1.192;2023-01-28T05:09:47;7.47;;;4.57;;
46755;SDS011;32506;52.826;-1.192;2023-01-28T05:12:12;7.80;;;5.25;;
46755;SDS011;32506;52.826;-1.192;2023-01-28T05:14:38;8.25;;;4.72;;
46755;SDS011;32506;52.826;-1.192;2023-01-28T05:17:03;8.88;;;5.15;;
46755;SDS011;32506;52.826;-1.192;2023-01-28T05:19:28;9.25;;;5.40;;
46755;SDS011;32506;52.826;-1.192;2023-01-28T05:21:54;8.00;;;5.90;;
46755;SDS011;32506;52.826;-1.192;2023-01-28T05:24:19;8.13;;;5.32;;
46755;SDS011;32506;52.826;-1.192;2023-01-28T05:26:45;9.35;;;5.70;;
46755;SDS011;32506;52.826;-1.192;2023-01-28T05:29:11;8.57;;;5.57;;
46755;SDS011;32506;52.826;-1.192;2023-01-28T05:31:36;10.60;;;6.00;;
46755;SDS011;32506;52.826;-1.192;2023-01-28T05:34:02;7.78;;;4.78;;
46755;SDS011;32506;52.826;-1.192;2023-01-28T05:36:27;9.63;;;5.07;;
46755;SDS011;32506;52.826;-1.192;2023-01-28T05:38:52;8.00;;;5.22;;
46755;SDS011;32506;52.826;-1.192;2023-01-28T05:41:18;9.05;;;5.18;;
46755;SDS011;32506;52.826;-1.192;2023-01-28T05:43:43;6.97;;;4.72;;
46755;SDS011;32506;52.826;-1.192;2023-01-28T05:46:09;7.22;;;4.63;;
46755;SDS011;32506;52.826;-1.192;2023-01-28T05:48:34;7.63;;;5.13;;
46755;SDS011;32506;52.826;-1.192;2023-01-28T05:51:00;7.00;;;4.30;;
46755;SDS011;32506;52.826;-1.192;2023-01-28T05:53:25;6.32;;;4.18;;
46755;SDS011;32506;52.826;-1.192;2023-01-28T05:55:51;10.38;;;5.38;;
46755;SDS011;32506;52.826;-1.192;2023-01-28T05:58:18;8.68;;;5.68;;
46755;SDS011;32506;52.826;-1.192;2023-01-28T06:00:44;7.07;;;4.50;;
46755;SDS011;32506;52.826;-1.192;2023-01-28T06:03:10;7.68;;;5.25;;
46755;SDS011;32506;52.826;-1.192;2023-01-28T06:05:36;7.95;;;4.90;;
46755;SDS011;32506;52.826;-1.192;2023-01-28T06:08:02;8.23;;;4.75;;
46755;SDS011;32506;52.826;-1.192;2023-01-28T06:10:28;7.47;;;4.32;;
46755;SDS011;32506;52.826;-1.192;2023-01-28T06:12:54;7.75;;;4.60;;
46755;SDS011;32506;52.826;-1.192;2023-01-28T06:15:19;6.90;;;5.20;;
46755;SDS011;32506;52.826;-1.192;2023-01-28T06:17:45;8.50;;;4.90;;
46755;SDS011;32506;52.826;-1.192;2023-01-28T06:20:11;7.00;;;4.78;;
46755;SDS011;32506;52.826;-1.192;2023-01-28T06:22:36;6.28;;;4.40;;
46755;SDS011;32506;52.826;-1.192;2023-01-28T06:25:01;7.03;;;4.60;;
46755;SDS011;32506;52.826;-1.192;2023-01-28T06:27:28;6.50;;;4.10;;
46755;SDS011;32506;52.826;-1.192;2023-01-28T06:29:53;7.28;;;4.53;;
46755;SDS011;32506;52.826;-1.192;2023-01-28T06:32:19;7.22;;;4.47;;
46755;SDS011;32506;52.826;-1.192;2023-01-28T06:34:45;7.30;;;4.68;;
46755;SDS011;32506;52.826;-1.192;2023-01-28T06:37:12;7.15;;;4.70;;
46755;SDS011;32506;52.826;-1.192;2023-01-28T06:39:38;9.30;;;4.60;;
46755;SDS011;32506;52.826;-1.192;2023-01-28T06:42:03;8.25;;;4.75;;
46755;SDS011;32506;52.826;-1.192;2023-01-28T06:44:29;6.40;;;4.40;;
46755;SDS011;32506;52.826;-1.192;2023-01-28T06:46:54;7.43;;;4.45;;
46755;SDS011;32506;52.826;-1.192;2023-01-28T06:49:20;6.90;;;4.70;;
46755;SDS011;32506;52.826;-1.192;2023-01-28T06:51:46;6.75;;;4.20;;
46755;SDS011;32506;52.826;-1.192;2023-01-28T06:54:11;6.15;;;3.92;;
46755;SDS011;32506;52.826;-1.192;2023-01-28T06:56:40;6.90;;;3.85;;
46755;SDS011;32506;52.826;-1.192;2023-01-28T06:59:06;7.07;;;4.13;;
46755;SDS011;32506;52.826;-1.192;2023-01-28T07:01:31;6.03;;;3.63;;
46755;SDS011;32506;52.826;-1.192;2023-01-28T07:03:57;7.43;;;3.75;;
46755;SDS011;32506;52.826;-1.192;2023-01-28T07:06:22;6.53;;;4.05;;
46755;SDS011;32506;52.826;-1.192;2023-01-28T07:08:48;6.35;;;3.80;;
46755;SDS011;32506;52.826;-1.192;2023-01-28T07:11:14;7.18;;;4.07;;
46755;SDS011;32506;52.826;-1.192;2023-01-28T07:13:40;6.28;;;3.80;;
46755;SDS011;32506;52.826;-1.192;2023-01-28T07:16:05;5.75;;;3.92;;
46755;SDS011;32506;52.826;-1.192;2023-01-28T07:18:31;7.10;;;3.83;;
46755;SDS011;32506;52.826;-1.192;2023-01-28T07:20:57;5.97;;;4.00;;
46755;SDS011;32506;52.826;-1.192;2023-01-28T07:23:23;8.40;;;3.78;;
46755;SDS011;32506;52.826;-1.192;2023-01-28T07:25:48;6.80;;;4.15;;
46755;SDS011;32506;52.826;-1.192;2023-01-28T07:28:14;6.10;;;3.92;;
46755;SDS011;32506;52.826;-1.192;2023-01-28T07:30:46;6.50;;;4.07;;
46755;SDS011;32506;52.826;-1.192;2023-01-28T07:33:15;6.90;;;4.05;;
46755;SDS011;32506;52.826;-1.192;2023-01-28T07:35:41;5.68;;;3.58;;
46755;SDS011;32506;52.826;-1.192;2023-01-28T07:38:06;5.65;;;3.63;;
46755;SDS011;32506;52.826;-1.192;2023-01-28T07:40:32;6.28;;;3.88;;
46755;SDS011;32506;52.826;-1.192;2023-01-28T07:42:57;5.88;;;3.42;;
46755;SDS011;32506;52.826;-1.192;2023-01-28T07:45:23;5.85;;;3.78;;
46755;SDS011;32506;52.826;-1.192;2023-01-28T07:47:56;4.57;;;3.10;;
46755;SDS011;32506;52.826;-1.192;2023-01-28T07:50:23;5.65;;;3.85;;
46755;SDS011;32506;52.826;-1.192;2023-01-28T07:52:50;5.05;;;3.53;;
46755;SDS011;32506;52.826;-1.192;2023-01-28T07:55:15;6.25;;;3.92;;
46755;SDS011;32506;52.826;-1.192;2023-01-28T07:57:54;6.10;;;3.55;;
46755;SDS011;32506;52.826;-1.192;2023-01-28T08:00:21;5.70;;;3.88;;
46755;SDS011;32506;52.826;-1.192;2023-01-28T08:02:48;6.35;;;3.83;;
46755;SDS011;32506;52.826;-1.192;2023-01-28T08:05:15;5.68;;;4.22;;
46755;SDS011;32506;52.826;-1.192;2023-01-28T08:07:41;5.45;;;3.45;;
46755;SDS011;32506;52.826;-1.192;2023-01-28T08:10:07;5.45;;;3.38;;
46755;SDS011;32506;52.826;-1.192;2023-01-28T08:12:33;4.13;;;2.95;;
46755;SDS011;32506;52.826;-1.192;2023-01-28T08:14:58;5.35;;;3.17;;
46755;SDS011;32506;52.826;-1.192;2023-01-28T08:17:24;5.93;;;3.33;;
46755;SDS011;32506;52.826;-1.192;2023-01-28T08:19:49;4.55;;;2.95;;
46755;SDS011;32506;52.826;-1.192;2023-01-28T08:22:15;5.40;;;3.03;;
46755;SDS011;32506;52.826;-1.192;2023-01-28T08:24:40;4.90;;;3.03;;
46755;SDS011;32506;52.826;-1.192;2023-01-28T08:27:05;5.07;;;3.15;;
46755;SDS011;32506;52.826;-1.192;2023-01-28T08:29:31;5.57;;;3.28;;
46755;SDS011;32506;52.826;-1.192;2023-01-28T08:31:57;5.32;;;3.15;;
46755;SDS011;32506;52.826;-1.192;2023-01-28T08:34:22;5.30;;;2.75;;
46755;SDS011;32506;52.826;-1.192;2023-01-28T08:36:48;4.78;;;3.53;;
46755;SDS011;32506;52.826;-1.192;2023-01-28T08:39:13;3.47;;;2.53;;
46755;SDS011;32506;52.826;-1.192;2023-01-28T08:41:38;4.03;;;2.80;;
46755;SDS011;32506;52.826;-1.192;2023-01-28T08:44:04;5.13;;;2.85;;
46755;SDS011;32506;52.826;-1.192;2023-01-28T08:46:29;4.60;;;2.75;;
46755;SDS011;32506;52.826;-1.192;2023-01-28T08:48:55;3.05;;;2.28;;
46755;SDS011;32506;52.826;-1.192;2023-01-28T08:51:20;3.90;;;2.63;;
46755;SDS011;32506;52.826;-1.192;2023-01-28T08:53:45;4.22;;;2.40;;
46755;SDS011;32506;52.826;-1.192;2023-01-28T08:56:11;5.40;;;2.50;;
46755;SDS011;32506;52.826;-1.192;2023-01-28T08:58:36;5.53;;;2.85;;
46755;SDS011;32506;52.826;-1.192;2023-01-28T09:01:05;5.15;;;2.35;;
46755;SDS011;32506;52.826;-1.192;2023-01-28T09:03:31;4.00;;;2.80;;
46755;SDS011;32506;52.826;-1.192;2023-01-28T09:06:00;4.45;;;2.83;;
46755;SDS011;32506;52.826;-1.192;2023-01-28T09:08:26;4.07;;;2.55;;
46755;SDS011;32506;52.826;-1.192;2023-01-28T09:10:55;3.70;;;2.30;;
46755;SDS011;32506;52.826;-1.192;2023-01-28T09:13:21;3.63;;;2.63;;
46755;SDS011;32506;52.826;-1.192;2023-01-28T09:15:48;3.95;;;2.55;;
46755;SDS011;32506;52.826;-1.192;2023-01-28T09:18:15;4.47;;;2.55;;
46755;SDS011;32506;52.826;-1.192;2023-01-28T09:20:40;3.83;;;2.45;;
46755;SDS011;32506;52.826;-1.192;2023-01-28T09:23:06;4.63;;;2.72;;
46755;SDS011;32506;52.826;-1.192;2023-01-28T09:25:32;3.92;;;2.63;;
46755;SDS011;32506;52.826;-1.192;2023-01-28T09:28:00;3.92;;;2.55;;
46755;SDS011;32506;52.826;-1.192;2023-01-28T09:30:25;3.75;;;2.90;;
46755;SDS011;32506;52.826;-1.192;2023-01-28T09:32:51;3.30;;;2.25;;
46755;SDS011;32506;52.826;-1.192;2023-01-28T09:35:18;3.08;;;1.92;;
46755;SDS011;32506;52.826;-1.192;2023-01-28T09:37:44;3.83;;;2.40;;
46755;SDS011;32506;52.826;-1.192;2023-01-28T09:40:11;5.03;;;2.53;;
46755;SDS011;32506;52.826;-1.192;2023-01-28T09:45:18;3.63;;;2.33;;
46755;SDS011;32506;52.826;-1.192;2023-01-28T09:48:01;3.90;;;2.53;;
46755;SDS011;32506;52.826;-1.192;2023-01-28T09:50:43;3.38;;;2.05;;
46755;SDS011;32506;52.826;-1.192;2023-01-28T09:53:14;2.67;;;1.83;;
46755;SDS011;32506;52.826;-1.192;2023-01-28T09:56:24;3.15;;;2.10;;
46755;SDS011;32506;52.826;-1.192;2023-01-28T09:58:32;3.42;;;1.98;;
46755;SDS011;32506;52.826;-1.192;2023-01-28T10:00:59;4.93;;;2.28;;
46755;SDS011;32506;52.826;-1.192;2023-01-28T10:03:57;4.85;;;2.78;;
46755;SDS011;32506;52.826;-1.192;2023-01-28T10:09:18;4.88;;;2.72;;
46755;SDS011;32506;52.826;-1.192;2023-01-28T10:17:27;4.20;;;2.80;;
46755;SDS011;32506;52.826;-1.192;2023-01-28T10:22:25;5.43;;;3.13;;
46755;SDS011;32506;52.826;-1.192;2023-01-28T10:24:57;5.75;;;3.30;;
46755;SDS011;32506;52.826;-1.192;2023-01-28T10:27:30;5.82;;;3.00;;
46755;SDS011;32506;52.826;-1.192;2023-01-28T10:29:58;3.92;;;2.92;;
46755;SDS011;32506;52.826;-1.192;2023-01-28T10:34:54;4.75;;;3.00;;
46755;SDS011;32506;52.826;-1.192;2023-01-28T10:37:23;5.47;;;3.00;;
46755;SDS011;32506;52.826;-1.192;2023-01-28T10:39:51;4.47;;;3.15;;
46755;SDS011;32506;52.826;-1.192;2023-01-28T10:44:58;5.80;;;3.20;;
46755;SDS011;32506;52.826;-1.192;2023-01-28T10:47:49;6.07;;;3.40;;
46755;SDS011;32506;52.826;-1.192;2023-01-28T10:50:17;5.90;;;3.63;;
46755;SDS011;32506;52.826;-1.192;2023-01-28T10:53:00;6.80;;;3.50;;
46755;SDS011;32506;52.826;-1.192;2023-01-28T10:58:22;6.43;;;3.55;;
46755;SDS011;32506;52.826;-1.192;2023-01-28T11:00:53;3.78;;;2.88;;
46755;SDS011;32506;52.826;-1.192;2023-01-28T11:03:22;5.30;;;2.88;;
46755;SDS011;32506;52.826;-1.192;2023-01-28T11:05:51;3.78;;;2.90;;
46755;SDS011;32506;52.826;-1.192;2023-01-28T11:08:18;4.95;;;3.05;;
46755;SDS011;32506;52.826;-1.192;2023-01-28T11:10:46;6.32;;;2.75;;
46755;SDS011;32506;52.826;-1.192;2023-01-28T11:15:51;5.07;;;2.83;;
46755;SDS011;32506;52.826;-1.192;2023-01-28T11:18:25;5.30;;;2.90;;
46755;SDS011;32506;52.826;-1.192;2023-01-28T11:20:56;6.03;;;2.72;;
46755;SDS011;32506;52.826;-1.192;2023-01-28T11:23:25;5.38;;;2.28;;
46755;SDS011;32506;52.826;-1.192;2023-01-28T11:26:06;2.97;;;2.15;;
46755;SDS011;32506;52.826;-1.192;2023-01-28T11:28:39;2.67;;;2.05;;
46755;SDS011;32506;52.826;-1.192;2023-01-28T11:31:06;2.78;;;2.13;;
46755;SDS011;32506;52.826;-1.192;2023-01-28T11:33:37;3.75;;;1.90;;
46755;SDS011;32506;52.826;-1.192;2023-01-28T11:36:15;3.53;;;2.13;;
46755;SDS011;32506;52.826;-1.192;2023-01-28T11:41:28;3.65;;;1.73;;
46755;SDS011;32506;52.826;-1.192;2023-01-28T11:43:59;3.20;;;2.00;;
46755;SDS011;32506;52.826;-1.192;2023-01-28T11:55:05;5.80;;;2.20;;
46755;SDS011;32506;52.826;-1.192;2023-01-28T11:57:39;4.00;;;2.10;;
46755;SDS011;32506;52.826;-1.192;2023-01-28T12:05:48;3.72;;;2.38;;
46755;SDS011;32506;52.826;-1.192;2023-01-28T12:08:37;3.05;;;1.70;;
46755;SDS011;32506;52.826;-1.192;2023-01-28T12:21:57;4.55;;;3.10;;
46755;SDS011;32506;52.826;-1.192;2023-01-28T12:27:51;3.83;;;2.50;;
46755;SDS011;32506;52.826;-1.192;2023-01-28T12:43:46;3.50;;;2.05;;
46755;SDS011;32506;52.826;-1.192;2023-01-28T12:49:23;4.25;;;2.40;;
46755;SDS011;32506;52.826;-1.192;2023-01-28T12:54:39;3.55;;;2.47;;
46755;SDS011;32506;52.826;-1.192;2023-01-28T12:57:12;3.38;;;2.10;;
46755;SDS011;32506;52.826;-1.192;2023-01-28T12:59:48;1.90;;;1.63;;
46755;SDS011;32506;52.826;-1.192;2023-01-28T13:02:22;4.05;;;2.22;;
46755;SDS011;32506;52.826;-1.192;2023-01-28T13:05:14;5.97;;;2.60;;
46755;SDS011;32506;52.826;-1.192;2023-01-28T13:13:05;4.60;;;2.20;;
46755;SDS011;32506;52.826;-1.192;2023-01-28T13:15:35;4.03;;;2.40;;
46755;SDS011;32506;52.826;-1.192;2023-01-28T13:18:04;5.30;;;2.75;;
46755;SDS011;32506;52.826;-1.192;2023-01-28T13:20:37;4.53;;;2.47;;
46755;SDS011;32506;52.826;-1.192;2023-01-28T13:23:20;5.25;;;2.92;;
46755;SDS011;32506;52.826;-1.192;2023-01-28T13:25:51;3.40;;;2.80;;
46755;SDS011;32506;52.826;-1.192;2023-01-28T13:28:26;5.97;;;2.67;;
46755;SDS011;32506;52.826;-1.192;2023-01-28T13:31:01;6.28;;;2.80;;
46755;SDS011;32506;52.826;-1.192;2023-01-28T13:33:41;3.83;;;2.50;;
46755;SDS011;32506;52.826;-1.192;2023-01-28T13:38:42;5.72;;;2.75;;
46755;SDS011;32506;52.826;-1.192;2023-01-28T13:41:09;4.00;;;2.47;;
46755;SDS011;32506;52.826;-1.192;2023-01-28T13:43:36;4.45;;;2.40;;
46755;SDS011;32506;52.826;-1.192;2023-01-28T13:46:05;3.13;;;2.55;;
46755;SDS011;32506;52.826;-1.192;2023-01-28T13:48:40;3.63;;;2.53;;
46755;SDS011;32506;52.826;-1.192;2023-01-28T13:51:23;4.32;;;2.83;;
46755;SDS011;32506;52.826;-1.192;2023-01-28T13:53:57;4.18;;;2.55;;
46755;SDS011;32506;52.826;-1.192;2023-01-28T13:56:25;5.88;;;3.15;;
46755;SDS011;32506;52.826;-1.192;2023-01-28T14:04:21;4.72;;;2.90;;
46755;SDS011;32506;52.826;-1.192;2023-01-28T14:17:50;5.35;;;2.80;;
46755;SDS011;32506;52.826;-1.192;2023-01-28T14:20:21;5.70;;;2.80;;
46755;SDS011;32506;52.826;-1.192;2023-01-28T14:22:50;4.55;;;2.88;;
46755;SDS011;32506;52.826;-1.192;2023-01-28T14:26:10;4.28;;;2.67;;
46755;SDS011;32506;52.826;-1.192;2023-01-28T14:28:17;4.60;;;2.30;;
46755;SDS011;32506;52.826;-1.192;2023-01-28T14:30:53;4.30;;;2.70;;
46755;SDS011;32506;52.826;-1.192;2023-01-28T14:33:22;6.65;;;3.33;;
46755;SDS011;32506;52.826;-1.192;2023-01-28T14:35:48;6.70;;;2.75;;
46755;SDS011;32506;52.826;-1.192;2023-01-28T14:38:18;5.97;;;2.30;;
46755;SDS011;32506;52.826;-1.192;2023-01-28T14:40:48;4.57;;;2.40;;
46755;SDS011;32506;52.826;-1.192;2023-01-28T14:43:17;4.05;;;2.60;;
46755;SDS011;32506;52.826;-1.192;2023-01-28T14:45:53;4.15;;;2.50;;
46755;SDS011;32506;52.826;-1.192;2023-01-28T14:59:53;6.40;;;2.72;;
46755;SDS011;32506;52.826;-1.192;2023-01-28T15:04:51;5.50;;;2.47;;
46755;SDS011;32506;52.826;-1.192;2023-01-28T15:07:19;6.18;;;3.17;;
46755;SDS011;32506;52.826;-1.192;2023-01-28T15:13:03;6.20;;;3.45;;
46755;SDS011;32506;52.826;-1.192;2023-01-28T15:15:33;6.95;;;3.42;;
46755;SDS011;32506;52.826;-1.192;2023-01-28T15:18:20;8.07;;;4.47;;
46755;SDS011;32506;52.826;-1.192;2023-01-28T15:20:53;6.95;;;2.92;;
46755;SDS011;32506;52.826;-1.192;2023-01-28T15:23:22;7.45;;;3.58;;
46755;SDS011;32506;52.826;-1.192;2023-01-28T15:25:52;6.20;;;3.25;;
46755;SDS011;32506;52.826;-1.192;2023-01-28T15:28:26;6.03;;;3.13;;
46755;SDS011;32506;52.826;-1.192;2023-01-28T15:30:54;5.80;;;2.78;;
46755;SDS011;32506;52.826;-1.192;2023-01-28T15:33:21;5.45;;;2.88;;
46755;SDS011;32506;52.826;-1.192;2023-01-28T15:35:48;4.90;;;2.72;;
46755;SDS011;32506;52.826;-1.192;2023-01-28T15:38:15;4.88;;;2.53;;
46755;SDS011;32506;52.826;-1.192;2023-01-28T15:40:43;5.05;;;2.65;;
46755;SDS011;32506;52.826;-1.192;2023-01-28T15:43:21;4.20;;;2.70;;
46755;SDS011;32506;52.826;-1.192;2023-01-28T15:45:51;6.05;;;2.80;;
46755;SDS011;32506;52.826;-1.192;2023-01-28T15:48:19;5.25;;;2.50;;
46755;SDS011;32506;52.826;-1.192;2023-01-28T15:50:47;4.72;;;2.38;;
46755;SDS011;32506;52.826;-1.192;2023-01-28T15:53:33;8.88;;;3.15;;
46755;SDS011;32506;52.826;-1.192;2023-01-28T15:56:27;5.75;;;2.85;;
46755;SDS011;32506;52.826;-1.192;2023-01-28T15:58:54;5.18;;;2.78;;
46755;SDS011;32506;52.826;-1.192;2023-01-28T16:01:20;5.05;;;2.72;;
46755;SDS011;32506;52.826;-1.192;2023-01-28T16:03:58;4.78;;;2.75;;
46755;SDS011;32506;52.826;-1.192;2023-01-28T16:06:28;4.78;;;2.63;;
46755;SDS011;32506;52.826;-1.192;2023-01-28T16:08:59;5.25;;;2.78;;
46755;SDS011;32506;52.826;-1.192;2023-01-28T16:11:29;3.83;;;2.58;;
46755;SDS011;32506;52.826;-1.192;2023-01-28T16:13:57;4.13;;;2.13;;
46755;SDS011;32506;52.826;-1.192;2023-01-28T16:16:42;4.47;;;2.67;;
46755;SDS011;32506;52.826;-1.192;2023-01-28T16:19:24;4.43;;;2.65;;
46755;SDS011;32506;52.826;-1.192;2023-01-28T16:22:00;5.75;;;2.58;;
46755;SDS011;32506;52.826;-1.192;2023-01-28T16:24:27;4.53;;;2.33;;
46755;SDS011;32506;52.826;-1.192;2023-01-28T16:26:56;4.80;;;2.22;;
46755;SDS011;32506;52.826;-1.192;2023-01-28T16:29:27;4.15;;;2.33;;
46755;SDS011;32506;52.826;-1.192;2023-01-28T16:31:53;4.07;;;2.15;;
46755;SDS011;32506;52.826;-1.192;2023-01-28T16:34:19;4.50;;;2.80;;
46755;SDS011;32506;52.826;-1.192;2023-01-28T16:36:44;4.22;;;2.30;;
46755;SDS011;32506;52.826;-1.192;2023-01-28T16:39:10;6.57;;;2.28;;
46755;SDS011;32506;52.826;-1.192;2023-01-28T16:41:40;4.20;;;2.20;;
46755;SDS011;32506;52.826;-1.192;2023-01-28T16:44:14;5.43;;;2.58;;
46755;SDS011;32506;52.826;-1.192;2023-01-28T16:46:40;4.15;;;2.38;;
46755;SDS011;32506;52.826;-1.192;2023-01-28T16:49:06;4.22;;;2.40;;
46755;SDS011;32506;52.826;-1.192;2023-01-28T16:51:33;5.03;;;2.38;;
46755;SDS011;32506;52.826;-1.192;2023-01-28T16:54:01;4.28;;;2.20;;
46755;SDS011;32506;52.826;-1.192;2023-01-28T16:56:27;5.25;;;2.17;;
46755;SDS011;32506;52.826;-1.192;2023-01-28T16:58:53;4.75;;;2.45;;
46755;SDS011;32506;52.826;-1.192;2023-01-28T17:01:20;6.57;;;2.67;;
46755;SDS011;32506;52.826;-1.192;2023-01-28T17:03:45;5.43;;;2.78;;